createdAt,value
2022-10-09T00:02:51.609Z,7.55
2022-10-09T00:08:09.158Z,7.87
2022-10-09T00:13:26.918Z,7.87
2022-10-09T00:18:45.162Z,7.47
2022-10-09T00:24:01.799Z,7.46
2022-10-09T00:29:19.324Z,7.46
2022-10-09T00:34:35.564Z,7.43
2022-10-09T00:39:52.835Z,7.43
2022-10-09T00:45:09.206Z,7.16
2022-10-09T00:50:26.606Z,7.16
2022-10-09T00:54:53.969Z,7.04
2022-10-09T00:59:27.550Z,7.04
2022-10-09T01:04:36.681Z,7.19
2022-10-09T01:09:46.518Z,7.19
2022-10-09T01:14:54.913Z,7.4
2022-10-09T01:20:03.391Z,7.4
2022-10-09T01:25:13.189Z,7.25
2022-10-09T01:30:22.912Z,7.25
2022-10-09T01:35:31.401Z,7.09
2022-10-09T01:40:40.511Z,7.09
2022-10-09T01:45:49.636Z,7.28
2022-10-09T01:50:58.754Z,7.28
2022-10-09T01:56:09.796Z,7.46
2022-10-09T02:01:21.229Z,7.46
2022-10-09T02:06:36.063Z,7.47
2022-10-09T02:11:52.191Z,7.47
2022-10-09T02:17:07.766Z,7.37
2022-10-09T02:22:23.899Z,7.37
2022-10-09T02:27:39.418Z,7.3
2022-10-09T02:32:54.370Z,7.3
2022-10-09T02:38:10.460Z,7.48
2022-10-09T02:43:26.634Z,7.48
2022-10-09T02:48:40.855Z,7.23
2022-10-09T02:53:56.372Z,7.23
2022-10-09T02:59:11.925Z,7.54
2022-10-09T03:04:28.077Z,7.54
2022-10-09T03:08:52.321Z,7.65
2022-10-09T03:13:25.955Z,7.65
2022-10-09T03:18:34.447Z,7.52
2022-10-09T03:23:42.984Z,7.52
2022-10-09T03:28:51.106Z,7.7
2022-10-09T03:34:07.882Z,7.46
2022-10-09T03:39:23.400Z,7.46
2022-10-09T03:44:40.831Z,7.58
2022-10-09T03:49:57.159Z,7.58
2022-10-09T03:55:14.614Z,7.19
2022-10-09T04:00:32.072Z,7.19
2022-10-09T04:05:48.044Z,7.47
2022-10-09T04:11:04.362Z,7.47
2022-10-09T04:16:21.976Z,7.49
2022-10-09T04:20:31.900Z,7.49
2022-10-09T04:25:33.634Z,7.25
2022-10-09T04:30:43.396Z,7.25
2022-10-09T04:35:52.518Z,7.35
2022-10-09T04:41:02.283Z,7.35
2022-10-09T04:46:11.906Z,7.6
2022-10-09T04:51:20.519Z,7.6
2022-10-09T04:56:32.691Z,7.21
2022-10-09T05:01:47.655Z,7.21
2022-10-09T05:07:04.381Z,7.41
2022-10-09T05:12:19.901Z,7.41
2022-10-09T05:22:52.700Z,7.33
2022-10-09T05:28:08.406Z,7.42
2022-10-09T05:38:39.451Z,7.56
2022-10-09T05:43:54.941Z,7.56
2022-10-09T05:49:11.128Z,7.48
2022-10-09T05:54:27.301Z,7.48
2022-10-09T05:59:42.772Z,7.25
2022-10-09T06:04:07.728Z,7.25
2022-10-09T06:08:39.915Z,7.48
2022-10-09T06:13:50.220Z,7.48
2022-10-09T06:19:04.852Z,7.29
2022-10-09T06:24:22.223Z,7.29
2022-10-09T06:29:35.319Z,7.66
2022-10-09T06:34:51.444Z,7.66
2022-10-09T06:40:05.654Z,7.35
2022-10-09T06:45:21.821Z,7.34
2022-10-09T06:50:36.077Z,7.34
2022-10-09T06:55:51.572Z,7.67
2022-10-09T07:01:07.822Z,7.67
2022-10-09T07:06:23.260Z,7.47
2022-10-09T07:11:38.170Z,7.47
2022-10-09T07:16:55.185Z,7.67
2022-10-09T07:22:11.734Z,7.67
2022-10-09T07:27:27.897Z,7.32
2022-10-09T07:31:53.674Z,7.32
2022-10-09T07:36:23.996Z,7.67
2022-10-09T07:41:33.628Z,7.67
2022-10-09T07:46:43.299Z,7.55
2022-10-09T07:51:52.514Z,7.55
2022-10-09T07:57:00.995Z,7.43
2022-10-09T08:02:11.152Z,7.43
2022-10-09T08:07:19.229Z,7.15
2022-10-09T08:12:27.701Z,7.15
2022-10-09T08:17:36.198Z,7.22
2022-10-09T08:22:47.897Z,7.22
2022-10-09T08:27:55.710Z,7.4
2022-10-09T08:33:04.192Z,7.4
2022-10-09T08:38:48.794Z,7.24
2022-10-09T08:43:22.508Z,7.24
2022-10-09T08:48:37.634Z,7.39
2022-10-09T08:53:55.074Z,7.39
2022-10-09T08:59:14.084Z,7.42
2022-10-09T09:04:30.619Z,7.42
2022-10-09T09:09:47.409Z,7.4
2022-10-09T09:15:04.357Z,7.4
2022-10-09T09:20:20.351Z,7.23
2022-10-09T09:25:37.807Z,7.23
2022-10-09T09:30:53.449Z,7.51
2022-10-09T09:36:10.284Z,7.51
2022-10-09T09:41:17.943Z,7.43
2022-10-09T09:45:53.882Z,7.21
2022-10-09T09:51:29.976Z,7.21
2022-10-09T09:55:35.218Z,7.39
2022-10-09T10:00:44.012Z,7.39
2022-10-09T10:05:53.473Z,7.32
2022-10-09T10:11:06.445Z,7.32
2022-10-09T10:16:16.625Z,7.18
2022-10-09T10:21:29.178Z,7.18
2022-10-09T10:26:37.016Z,7.51
2022-10-09T10:31:49.327Z,7.51
2022-10-09T10:37:03.809Z,7.39
2022-10-09T10:42:06.908Z,7.39
2022-10-09T10:47:16.676Z,6.98
2022-10-09T10:52:25.151Z,6.98
2022-10-09T10:57:37.479Z,7.45
2022-10-09T11:02:45.653Z,7.45
2022-10-09T11:08:00.544Z,7.13
2022-10-09T11:13:11.718Z,7.13
2022-10-09T11:18:28.033Z,7.19
2022-10-09T11:23:42.916Z,7.19
2022-10-09T11:28:58.918Z,7.35
2022-10-09T11:34:15.943Z,7.35
2022-10-09T11:39:32.679Z,7.35
2022-10-09T11:44:48.681Z,7.35
2022-10-09T11:50:05.004Z,7.39
2022-10-09T11:55:23.854Z,7.39
2022-10-09T12:00:39.882Z,7.3
2022-10-09T12:11:14.764Z,7.3
2022-10-09T12:21:47.558Z,7.25
2022-10-09T12:27:03.397Z,7.41
2022-10-09T12:37:36.042Z,7.29
2022-10-09T12:42:52.499Z,7.29
2022-10-09T12:48:08.440Z,7.41
2022-10-09T12:53:27.079Z,7.41
2022-10-09T12:58:44.028Z,7.24
2022-10-09T13:03:59.397Z,7.24
2022-10-09T13:09:16.358Z,7.21
2022-10-09T13:14:33.806Z,7.21
2022-10-09T13:25:06.120Z,7.32
2022-10-09T13:30:24.037Z,7.51
2022-10-09T13:35:42.279Z,7.51
2022-10-09T13:40:59.182Z,7.61
2022-10-09T13:46:15.295Z,7.61
2022-10-09T13:51:34.711Z,7.6
2022-10-09T13:56:51.403Z,7.6
2022-10-09T13:59:37.451Z,7.65
2022-10-09T14:04:08.526Z,7.65
2022-10-09T14:09:18.283Z,7.71
2022-10-09T14:14:27.395Z,7.71
2022-10-09T14:19:36.529Z,7.93
2022-10-09T14:24:46.271Z,7.93
2022-10-09T14:29:57.554Z,7.77
2022-10-09T14:35:04.514Z,7.77
2022-10-09T14:40:12.994Z,7.59
2022-10-09T14:45:22.790Z,7.59
2022-10-09T14:50:31.895Z,7.8
2022-10-09T14:55:41.633Z,7.8
2022-10-09T15:00:50.753Z,7.6
2022-10-09T15:06:01.148Z,7.6
2022-10-09T15:11:09.662Z,7.41
2022-10-09T15:16:18.093Z,7.41
2022-10-09T15:21:26.642Z,7.43
2022-10-09T15:26:36.114Z,7.34
2022-10-09T15:31:44.302Z,7.34
2022-10-09T15:36:54.030Z,7.48
2022-10-09T15:42:02.483Z,7.48
2022-10-09T15:47:51.661Z,7.45
2022-10-09T15:52:31.519Z,7.45
2022-10-09T15:57:47.134Z,7.45
2022-10-09T16:02:40.829Z,7.45
2022-10-09T16:08:17.343Z,7.36
2022-10-09T16:13:34.178Z,7.36
2022-10-09T16:18:50.506Z,7.35
2022-10-09T16:23:16.790Z,7.35
2022-10-09T16:34:35.577Z,7.47
2022-10-09T16:39:50.452Z,7.36
2022-10-09T16:50:22.141Z,7.27
2022-10-09T17:00:55.113Z,7.4
2022-10-09T17:11:26.313Z,7.5
2022-10-09T17:16:41.047Z,7.5
2022-10-09T17:21:57.179Z,7.35
2022-10-09T17:27:12.688Z,7.35
2022-10-09T17:31:38.248Z,7.47
2022-10-09T17:36:03.098Z,7.47
2022-10-09T17:41:22.284Z,7.42
2022-10-09T17:46:34.140Z,7.42
2022-10-09T17:51:50.290Z,7.6
2022-10-09T17:57:05.220Z,7.6
2022-10-09T18:02:21.368Z,7.66
2022-10-09T18:07:35.611Z,7.66
2022-10-09T18:12:51.096Z,7.45
2022-10-09T18:17:16.618Z,7.45
2022-10-09T18:21:45.155Z,7.57
2022-10-09T18:26:55.560Z,7.57
2022-10-09T18:32:04.681Z,7.58
2022-10-09T18:37:12.511Z,7.48
2022-10-09T18:42:22.275Z,7.48
2022-10-09T18:47:30.756Z,7.64
2022-10-09T18:52:40.513Z,7.64
2022-10-09T18:57:49.016Z,7.33
2022-10-09T19:02:58.114Z,7.33
2022-10-09T19:08:07.913Z,7.31
2022-10-09T19:13:18.276Z,7.31
2022-10-09T19:18:27.417Z,7.35
2022-10-09T19:23:35.869Z,7.35
2022-10-09T19:28:45.267Z,7.39
2022-10-09T19:33:55.394Z,7.39
2022-10-09T19:39:04.515Z,7.31
2022-10-09T19:44:14.910Z,7.31
2022-10-09T19:49:24.676Z,7.36
2022-10-09T19:54:33.798Z,7.36
2022-10-09T19:59:43.565Z,7.57
2022-10-09T20:04:59.557Z,7.57
2022-10-09T20:10:16.839Z,7.59
2022-10-09T20:15:34.277Z,7.59
2022-10-09T20:20:49.793Z,7.4
2022-10-09T20:26:06.589Z,7.4
2022-10-09T20:31:24.205Z,7.38
2022-10-09T20:36:42.923Z,7.38
2022-10-09T20:41:59.563Z,7.78
2022-10-09T20:47:16.524Z,7.78
2022-10-09T20:52:33.797Z,7.62
2022-10-09T20:57:00.599Z,7.62
2022-10-09T21:01:35.209Z,7.38
2022-10-09T21:06:44.747Z,7.38
2022-10-09T21:11:53.158Z,7.42
2022-10-09T21:17:02.921Z,7.42
2022-10-09T21:22:11.422Z,7.52
2022-10-09T21:27:21.164Z,7.52
2022-10-09T21:32:35.734Z,7.53
2022-10-09T21:37:51.285Z,7.53
2022-10-09T21:43:06.776Z,7.48
2022-10-09T21:48:22.930Z,7.64
2022-10-09T21:53:39.124Z,7.64
2022-10-09T21:58:55.287Z,7.5
2022-10-09T22:04:10.135Z,7.5
2022-10-09T22:09:26.314Z,7.49
2022-10-09T22:14:42.488Z,7.49
2022-10-09T22:19:58.617Z,7.45
2022-10-09T22:25:13.497Z,7.45
2022-10-09T22:30:29.016Z,7.41
2022-10-09T22:34:55.819Z,7.41
2022-10-09T22:39:27.555Z,7.46
2022-10-09T22:44:37.368Z,7.46
2022-10-09T22:49:45.790Z,7.37
2022-10-09T22:54:55.706Z,7.37
2022-10-09T23:00:03.402Z,7.44
2022-10-09T23:05:11.877Z,7.44
2022-10-09T23:10:21.637Z,7.27
2022-10-09T23:15:30.783Z,7.27
2022-10-09T23:20:40.514Z,7.37
2022-10-09T23:25:50.304Z,7.37
2022-10-09T23:31:00.994Z,7.15
2022-10-09T23:36:18.591Z,7.15
2022-10-09T23:41:36.044Z,7.19
2022-10-09T23:46:53.642Z,7.19
2022-10-09T23:52:09.558Z,7.33
2022-10-09T23:57:26.992Z,7.33
